sensor_id;sensor_type;location;lat;lon;timestamp;pressure;altitude;pressure_sealevel;temperature;humidity
8047;BME280;74083;42.516;23.358;2023-11-21T00:01:28;88183.97;;;8.23;55.58
8047;BME280;74083;42.516;23.358;2023-11-21T00:04:14;88186.47;;;8.23;55.45
8047;BME280;74083;42.516;23.358;2023-11-21T00:06:59;88182.38;;;8.22;55.52
8047;BME280;74083;42.516;23.358;2023-11-21T00:09:45;88184.16;;;8.20;55.57
8047;BME280;74083;42.516;23.358;2023-11-21T00:12:32;88181.88;;;8.17;55.92
8047;BME280;74083;42.516;23.358;2023-11-21T00:15:18;88181.78;;;8.18;55.87
8047;BME280;74083;42.516;23.358;2023-11-21T00:18:04;88177.66;;;8.17;55.68
8047;BME280;74083;42.516;23.358;2023-11-21T00:20:50;88175.06;;;8.19;55.53
8047;BME280;74083;42.516;23.358;2023-11-21T00:23:36;88177.44;;;8.20;55.48
8047;BME280;74083;42.516;23.358;2023-11-21T00:26:21;88182.59;;;8.19;55.75
8047;BME280;74083;42.516;23.358;2023-11-21T00:29:09;88180.06;;;8.19;55.67
8047;BME280;74083;42.516;23.358;2023-11-21T00:31:55;88172.63;;;8.17;55.43
8047;BME280;74083;42.516;23.358;2023-11-21T00:34:41;88181.88;;;8.17;55.62
8047;BME280;74083;42.516;23.358;2023-11-21T00:37:26;88184.38;;;8.17;55.63
8047;BME280;74083;42.516;23.358;2023-11-21T00:40:12;88184.38;;;8.17;55.56
8047;BME280;74083;42.516;23.358;2023-11-21T00:42:59;88186.00;;;8.18;55.84
8047;BME280;74083;42.516;23.358;2023-11-21T00:45:46;88176.84;;;8.17;55.75
8047;BME280;74083;42.516;23.358;2023-11-21T00:48:33;88176.03;;;8.16;55.56
8047;BME280;74083;42.516;23.358;2023-11-21T00:51:18;88180.28;;;8.16;55.57
8047;BME280;74083;42.516;23.358;2023-11-21T00:54:04;88184.50;;;8.15;55.58
8047;BME280;74083;42.516;23.358;2023-11-21T00:56:51;88185.31;;;8.16;55.75
8047;BME280;74083;42.516;23.358;2023-11-21T00:59:36;88176.84;;;8.17;55.56
8047;BME280;74083;42.516;23.358;2023-11-21T01:02:23;88166.94;;;8.15;55.85
8047;BME280;74083;42.516;23.358;2023-11-21T01:05:09;88162.72;;;8.16;55.65
8047;BME280;74083;42.516;23.358;2023-11-21T01:07:55;88169.31;;;8.17;55.67
8047;BME280;74083;42.516;23.358;2023-11-21T01:10:40;88160.97;;;8.16;55.87
8047;BME280;74083;42.516;23.358;2023-11-21T01:13:26;88160.22;;;8.16;55.79
8047;BME280;74083;42.516;23.358;2023-11-21T01:16:13;88156.97;;;8.14;55.87
8047;BME280;74083;42.516;23.358;2023-11-21T01:19:01;88165.44;;;8.13;55.94
8047;BME280;74083;42.516;23.358;2023-11-21T01:21:47;88143.84;;;8.10;55.70
8047;BME280;74083;42.516;23.358;2023-11-21T01:24:32;88145.56;;;8.10;55.79
8047;BME280;74083;42.516;23.358;2023-11-21T01:27:18;88148.16;;;8.08;55.59
8047;BME280;74083;42.516;23.358;2023-11-21T01:30:05;88146.47;;;8.09;55.83
8047;BME280;74083;42.516;23.358;2023-11-21T01:32:53;88149.78;;;8.09;55.76
8047;BME280;74083;42.516;23.358;2023-11-21T01:35:40;88154.00;;;8.09;55.73
8047;BME280;74083;42.516;23.358;2023-11-21T01:38:26;88153.19;;;8.08;56.02
8047;BME280;74083;42.516;23.358;2023-11-21T01:41:12;88151.50;;;8.09;56.02
8047;BME280;74083;42.516;23.358;2023-11-21T01:43:58;88141.44;;;8.09;56.03
8047;BME280;74083;42.516;23.358;2023-11-21T01:46:44;88138.13;;;8.08;55.92
8047;BME280;74083;42.516;23.358;2023-11-21T01:49:30;88142.34;;;8.08;55.96
8047;BME280;74083;42.516;23.358;2023-11-21T01:52:18;88147.38;;;8.08;55.81
8047;BME280;74083;42.516;23.358;2023-11-21T01:55:05;88136.56;;;8.07;55.96
8047;BME280;74083;42.516;23.358;2023-11-21T01:57:52;88138.34;;;8.05;56.26
8047;BME280;74083;42.516;23.358;2023-11-21T02:00:38;88133.94;;;8.09;56.11
8047;BME280;74083;42.516;23.358;2023-11-21T02:03:24;88129.13;;;8.06;56.01
8047;BME280;74083;42.516;23.358;2023-11-21T02:06:10;88126.53;;;8.07;56.12
8047;BME280;74083;42.516;23.358;2023-11-21T02:08:58;88117.25;;;8.08;56.18
8047;BME280;74083;42.516;23.358;2023-11-21T02:11:43;88125.72;;;8.07;55.93
8047;BME280;74083;42.516;23.358;2023-11-21T02:14:30;88132.31;;;8.08;56.32
8047;BME280;74083;42.516;23.358;2023-11-21T02:17:16;88130.72;;;8.07;56.10
8047;BME280;74083;42.516;23.358;2023-11-21T02:20:03;88132.31;;;8.08;56.01
8047;BME280;74083;42.516;23.358;2023-11-21T02:22:52;88128.22;;;8.07;56.36
8047;BME280;74083;42.516;23.358;2023-11-21T02:25:42;88122.28;;;8.08;56.31
8047;BME280;74083;42.516;23.358;2023-11-21T02:28:28;88126.59;;;8.06;56.36
8047;BME280;74083;42.516;23.358;2023-11-21T02:31:13;88123.88;;;8.09;56.38
8047;BME280;74083;42.516;23.358;2023-11-21T02:34:00;88132.31;;;8.08;56.38
8047;BME280;74083;42.516;23.358;2023-11-21T02:36:45;88125.72;;;8.07;56.41
8047;BME280;74083;42.516;23.358;2023-11-21T02:39:33;88125.72;;;8.07;56.20
8047;BME280;74083;42.516;23.358;2023-11-21T02:42:18;88119.09;;;8.06;56.19
8047;BME280;74083;42.516;23.358;2023-11-21T02:45:05;88123.22;;;8.07;56.23
8047;BME280;74083;42.516;23.358;2023-11-21T02:47:51;88125.72;;;8.07;56.23
8047;BME280;74083;42.516;23.358;2023-11-21T02:50:41;88133.34;;;8.05;56.17
8047;BME280;74083;42.516;23.358;2023-11-21T02:53:27;88134.94;;;8.06;56.46
8047;BME280;74083;42.516;23.358;2023-11-21T02:56:14;88130.72;;;8.07;56.17
8047;BME280;74083;42.516;23.358;2023-11-21T02:59:00;88133.13;;;8.08;56.48
8047;BME280;74083;42.516;23.358;2023-11-21T03:01:46;88131.41;;;8.09;56.52
8047;BME280;74083;42.516;23.358;2023-11-21T03:04:34;88130.63;;;8.08;56.43
8047;BME280;74083;42.516;23.358;2023-11-21T03:07:19;88128.91;;;8.09;56.53
8047;BME280;74083;42.516;23.358;2023-11-21T03:10:07;88120.69;;;8.07;56.47
8047;BME280;74083;42.516;23.358;2023-11-21T03:12:56;88118.19;;;8.07;56.30
8047;BME280;74083;42.516;23.358;2023-11-21T03:15:42;88119.78;;;8.08;56.36
8047;BME280;74083;42.516;23.358;2023-11-21T03:18:28;88114.75;;;8.08;56.63
8047;BME280;74083;42.516;23.358;2023-11-21T03:21:14;88110.75;;;8.05;56.39
8047;BME280;74083;42.516;23.358;2023-11-21T03:23:59;88119.97;;;8.05;56.68
8047;BME280;74083;42.516;23.358;2023-11-21T03:26:45;88126.72;;;8.04;56.47
8047;BME280;74083;42.516;23.358;2023-11-21T03:29:32;88129.34;;;8.03;56.64
8047;BME280;74083;42.516;23.358;2023-11-21T03:32:18;88135.25;;;8.02;56.56
8047;BME280;74083;42.516;23.358;2023-11-21T03:35:04;88137.75;;;8.02;56.28
8047;BME280;74083;42.516;23.358;2023-11-21T03:37:50;88136.03;;;8.02;56.36
8047;BME280;74083;42.516;23.358;2023-11-21T03:40:36;88137.75;;;8.02;56.63
8047;BME280;74083;42.516;23.358;2023-11-21T03:43:21;88136.16;;;8.01;56.48
8047;BME280;74083;42.516;23.358;2023-11-21T03:46:10;88132.72;;;8.02;56.23
8047;BME280;74083;42.516;23.358;2023-11-21T03:48:56;88126.94;;;8.01;56.39
8047;BME280;74083;42.516;23.358;2023-11-21T03:51:42;88132.72;;;8.02;56.37
8047;BME280;74083;42.516;23.358;2023-11-21T03:54:28;88121.94;;;8.01;56.24
8047;BME280;74083;42.516;23.358;2023-11-21T03:57:13;88119.41;;;8.01;56.34
8047;BME280;74083;42.516;23.358;2023-11-21T03:59:59;88112.66;;;8.02;56.29
8047;BME280;74083;42.516;23.358;2023-11-21T04:02:46;88102.75;;;8.00;56.47
8047;BME280;74083;42.516;23.358;2023-11-21T04:05:32;88107.88;;;7.99;56.41
8047;BME280;74083;42.516;23.358;2023-11-21T04:08:17;88110.50;;;7.97;56.63
8047;BME280;74083;42.516;23.358;2023-11-21T04:11:03;88104.06;;;7.93;56.80
8047;BME280;74083;42.516;23.358;2023-11-21T04:13:49;88105.69;;;7.94;56.33
8047;BME280;74083;42.516;23.358;2023-11-21T04:16:35;88101.47;;;7.95;56.63
8047;BME280;74083;42.516;23.358;2023-11-21T04:19:21;88109.00;;;7.95;56.43
8047;BME280;74083;42.516;23.358;2023-11-21T04:22:07;88111.50;;;7.95;56.67
8047;BME280;74083;42.516;23.358;2023-11-21T04:24:52;88102.38;;;7.94;56.50
8047;BME280;74083;42.516;23.358;2023-11-21T04:27:39;88112.41;;;7.94;56.70
8047;BME280;74083;42.516;23.358;2023-11-21T04:30:27;88106.50;;;7.95;56.47
8047;BME280;74083;42.516;23.358;2023-11-21T04:33:13;88108.06;;;7.96;56.66
8047;BME280;74083;42.516;23.358;2023-11-21T04:35:59;88119.84;;;7.95;56.62
8047;BME280;74083;42.516;23.358;2023-11-21T04:38:45;88107.28;;;7.95;56.42
8047;BME280;74083;42.516;23.358;2023-11-21T04:41:31;88102.28;;;7.95;56.49
8047;BME280;74083;42.516;23.358;2023-11-21T04:44:16;88099.78;;;7.95;56.66
8047;BME280;74083;42.516;23.358;2023-11-21T04:47:02;88103.97;;;7.95;56.51
8047;BME280;74083;42.516;23.358;2023-11-21T04:49:49;88108.19;;;7.94;56.57
8047;BME280;74083;42.516;23.358;2023-11-21T04:52:37;88104.88;;;7.94;56.85
8047;BME280;74083;42.516;23.358;2023-11-21T04:55:22;88099.06;;;7.93;56.79
8047;BME280;74083;42.516;23.358;2023-11-21T04:58:07;88110.09;;;7.90;56.79
8047;BME280;74083;42.516;23.358;2023-11-21T05:00:53;88097.69;;;7.89;56.76
8047;BME280;74083;42.516;23.358;2023-11-21T05:03:39;88100.19;;;7.89;56.72
8047;BME280;74083;42.516;23.358;2023-11-21T05:06:25;88101.00;;;7.89;56.41
8047;BME280;74083;42.516;23.358;2023-11-21T05:09:12;88106.78;;;7.90;56.55
8047;BME280;74083;42.516;23.358;2023-11-21T05:12:00;88112.72;;;7.89;56.54
8047;BME280;74083;42.516;23.358;2023-11-21T05:14:46;88103.50;;;7.89;56.86
8047;BME280;74083;42.516;23.358;2023-11-21T05:17:33;88106.00;;;7.89;56.50
8047;BME280;74083;42.516;23.358;2023-11-21T05:20:19;88107.50;;;7.92;56.75
8047;BME280;74083;42.516;23.358;2023-11-21T05:23:05;88111.72;;;7.92;56.67
8047;BME280;74083;42.516;23.358;2023-11-21T05:25:53;88105.09;;;7.90;56.82
8047;BME280;74083;42.516;23.358;2023-11-21T05:28:40;88101.69;;;7.92;56.64
8047;BME280;74083;42.516;23.358;2023-11-21T05:31:26;88110.91;;;7.91;57.08
8047;BME280;74083;42.516;23.358;2023-11-21T05:34:12;88110.00;;;7.92;57.00
8047;BME280;74083;42.516;23.358;2023-11-21T05:36:58;88114.22;;;7.92;57.03
8047;BME280;74083;42.516;23.358;2023-11-21T05:39:44;88115.03;;;7.92;56.79
8047;BME280;74083;42.516;23.358;2023-11-21T05:42:31;88115.94;;;7.91;56.94
8047;BME280;74083;42.516;23.358;2023-11-21T05:45:17;88113.53;;;7.89;56.94
8047;BME280;74083;42.516;23.358;2023-11-21T05:48:02;88119.25;;;7.92;57.05
8047;BME280;74083;42.516;23.358;2023-11-21T05:50:48;88120.13;;;7.90;56.84
8047;BME280;74083;42.516;23.358;2023-11-21T05:53:34;88116.81;;;7.90;57.05
8047;BME280;74083;42.516;23.358;2023-11-21T05:56:20;88110.91;;;7.91;56.92
8047;BME280;74083;42.516;23.358;2023-11-21T05:59:07;88111.81;;;7.90;57.02
8047;BME280;74083;42.516;23.358;2023-11-21T06:01:53;88115.13;;;7.90;57.19
8047;BME280;74083;42.516;23.358;2023-11-21T06:04:38;88110.09;;;7.90;56.89
8047;BME280;74083;42.516;23.358;2023-11-21T06:07:24;88108.53;;;7.89;57.34
8047;BME280;74083;42.516;23.358;2023-11-21T06:10:11;88107.72;;;7.89;57.22
8047;BME280;74083;42.516;23.358;2023-11-21T06:12:58;88103.50;;;7.89;57.02
8047;BME280;74083;42.516;23.358;2023-11-21T06:15:45;88108.53;;;7.89;57.01
8047;BME280;74083;42.516;23.358;2023-11-21T06:18:30;88116.81;;;7.90;57.09
8047;BME280;74083;42.516;23.358;2023-11-21T06:21:16;88123.56;;;7.89;57.11
8047;BME280;74083;42.516;23.358;2023-11-21T06:24:03;88120.94;;;7.91;57.12
8047;BME280;74083;42.516;23.358;2023-11-21T06:26:48;88118.56;;;7.89;57.12
8047;BME280;74083;42.516;23.358;2023-11-21T06:29:34;88124.25;;;7.92;57.33
8047;BME280;74083;42.516;23.358;2023-11-21T06:32:22;88125.97;;;7.91;57.45
8047;BME280;74083;42.516;23.358;2023-11-21T06:35:08;88124.34;;;7.90;57.19
8047;BME280;74083;42.516;23.358;2023-11-21T06:37:54;88131.09;;;7.89;57.02
8047;BME280;74083;42.516;23.358;2023-11-21T06:40:40;88132.00;;;7.88;57.40
8047;BME280;74083;42.516;23.358;2023-11-21T06:43:25;88126.16;;;7.88;57.33
8047;BME280;74083;42.516;23.358;2023-11-21T06:46:11;88129.34;;;7.90;56.91
8047;BME280;74083;42.516;23.358;2023-11-21T06:49:00;88125.34;;;7.87;57.09
8047;BME280;74083;42.516;23.358;2023-11-21T06:51:45;88126.97;;;7.88;57.15
8047;BME280;74083;42.516;23.358;2023-11-21T06:54:31;88131.19;;;7.88;57.02
8047;BME280;74083;42.516;23.358;2023-11-21T06:57:17;88126.16;;;7.88;57.22
8047;BME280;74083;42.516;23.358;2023-11-21T07:00:04;88128.00;;;7.86;57.41
8047;BME280;74083;42.516;23.358;2023-11-21T07:02:50;88127.28;;;7.84;57.31
8047;BME280;74083;42.516;23.358;2023-11-21T07:05:37;88130.78;;;7.81;56.94
8047;BME280;74083;42.516;23.358;2023-11-21T07:08:23;88125.78;;;7.81;57.33
8047;BME280;74083;42.516;23.358;2023-11-21T07:11:09;88132.28;;;7.84;57.46
8047;BME280;74083;42.516;23.358;2023-11-21T07:13:54;88127.88;;;7.87;57.34
8047;BME280;74083;42.516;23.358;2023-11-21T07:16:40;88134.38;;;7.90;56.93
8047;BME280;74083;42.516;23.358;2023-11-21T07:19:26;88131.38;;;7.98;56.86
8047;BME280;74083;42.516;23.358;2023-11-21T07:22:12;88131.97;;;8.01;56.91
8047;BME280;74083;42.516;23.358;2023-11-21T07:24:59;88129.53;;;8.00;57.39
8047;BME280;74083;42.516;23.358;2023-11-21T07:27:44;88129.97;;;7.94;57.21
8047;BME280;74083;42.516;23.358;2023-11-21T07:30:30;88134.38;;;7.90;57.26
8047;BME280;74083;42.516;23.358;2023-11-21T07:33:16;88129.69;;;7.85;57.43
8047;BME280;74083;42.516;23.358;2023-11-21T07:36:03;88143.63;;;7.89;57.52
8047;BME280;74083;42.516;23.358;2023-11-21T07:38:50;88130.38;;;7.87;57.42
8047;BME280;74083;42.516;23.358;2023-11-21T07:41:36;88133.69;;;7.88;57.47
8047;BME280;74083;42.516;23.358;2023-11-21T07:44:29;88138.81;;;7.86;57.79
8047;BME280;74083;42.516;23.358;2023-11-21T07:47:14;88143.84;;;7.86;57.75
8047;BME280;74083;42.516;23.358;2023-11-21T07:50:00;88143.84;;;7.86;57.76
8047;BME280;74083;42.516;23.358;2023-11-21T07:52:47;88146.22;;;7.88;58.07
8047;BME280;74083;42.516;23.358;2023-11-21T07:55:35;88138.72;;;7.88;57.90
8047;BME280;74083;42.516;23.358;2023-11-21T07:58:21;88131.09;;;7.89;57.78
8047;BME280;74083;42.516;23.358;2023-11-21T08:01:06;88134.59;;;7.87;58.05
8047;BME280;74083;42.516;23.358;2023-11-21T08:03:52;88133.81;;;7.86;58.33
8047;BME280;74083;42.516;23.358;2023-11-21T08:06:40;88123.78;;;7.86;59.12
8047;BME280;74083;42.516;23.358;2023-11-21T08:09:27;88128.78;;;7.86;59.19
8047;BME280;74083;42.516;23.358;2023-11-21T08:12:14;88126.97;;;7.88;59.33
8047;BME280;74083;42.516;23.358;2023-11-21T08:15:00;88128.59;;;7.89;59.42
8047;BME280;74083;42.516;23.358;2023-11-21T08:17:46;88125.16;;;7.90;59.21
8047;BME280;74083;42.516;23.358;2023-11-21T08:20:32;88129.28;;;7.92;59.33
8047;BME280;74083;42.516;23.358;2023-11-21T08:23:20;88123.66;;;7.88;59.82
8047;BME280;74083;42.516;23.358;2023-11-21T08:26:09;88135.38;;;7.87;59.92
8047;BME280;74083;42.516;23.358;2023-11-21T08:28:56;88129.56;;;7.87;59.70
8047;BME280;74083;42.516;23.358;2023-11-21T08:31:42;88139.44;;;7.77;60.17
8047;BME280;74083;42.516;23.358;2023-11-21T08:34:28;88136.00;;;7.78;59.11
8047;BME280;74083;42.516;23.358;2023-11-21T08:37:14;88140.13;;;7.79;59.91
8047;BME280;74083;42.516;23.358;2023-11-21T08:40:00;88130.69;;;7.83;59.89
8047;BME280;74083;42.516;23.358;2023-11-21T08:42:46;88137.00;;;7.88;59.42
8047;BME280;74083;42.516;23.358;2023-11-21T08:45:33;88145.63;;;7.84;59.28
8047;BME280;74083;42.516;23.358;2023-11-21T08:48:18;88137.00;;;7.88;59.06
8047;BME280;74083;42.516;23.358;2023-11-21T08:51:05;88140.81;;;7.81;59.26
8047;BME280;74083;42.516;23.358;2023-11-21T08:53:51;88136.81;;;7.79;59.51
8047;BME280;74083;42.516;23.358;2023-11-21T08:56:37;88133.50;;;7.78;58.90
8047;BME280;74083;42.516;23.358;2023-11-21T08:59:22;88132.63;;;7.79;59.06
8047;BME280;74083;42.516;23.358;2023-11-21T09:02:09;88118.03;;;7.84;59.03
8047;BME280;74083;42.516;23.358;2023-11-21T09:04:55;88119.66;;;7.85;58.63
8047;BME280;74083;42.516;23.358;2023-11-21T09:07:42;88112.22;;;7.84;58.74
8047;BME280;74083;42.516;23.358;2023-11-21T09:10:29;88106.69;;;7.92;58.62
8047;BME280;74083;42.516;23.358;2023-11-21T09:13:17;88087.88;;;7.86;58.18
8047;BME280;74083;42.516;23.358;2023-11-21T09:16:03;88076.00;;;7.88;58.53
8047;BME280;74083;42.516;23.358;2023-11-21T09:18:51;88061.75;;;7.88;58.73
8047;BME280;74083;42.516;23.358;2023-11-21T09:21:36;88056.97;;;7.85;58.50
8047;BME280;74083;42.516;23.358;2023-11-21T09:24:23;88051.03;;;7.86;58.49
8047;BME280;74083;42.516;23.358;2023-11-21T09:27:10;88054.13;;;7.90;58.87
8047;BME280;74083;42.516;23.358;2023-11-21T09:29:56;88042.59;;;7.87;58.50
8047;BME280;74083;42.516;23.358;2023-11-21T09:32:42;88040.09;;;7.87;58.39
8047;BME280;74083;42.516;23.358;2023-11-21T09:35:30;88040.81;;;7.89;59.05
8047;BME280;74083;42.516;23.358;2023-11-21T09:38:16;88033.28;;;7.89;58.89
8047;BME280;74083;42.516;23.358;2023-11-21T09:41:02;88033.97;;;7.92;58.49
8047;BME280;74083;42.516;23.358;2023-11-21T09:43:55;88033.84;;;7.93;58.62
8047;BME280;74083;42.516;23.358;2023-11-21T09:58:58;87986.41;;;8.25;57.98
8047;BME280;74083;42.516;23.358;2023-11-21T10:01:48;87986.75;;;8.20;58.32
8047;BME280;74083;42.516;23.358;2023-11-21T10:04:35;87985.03;;;8.21;58.81
8047;BME280;74083;42.516;23.358;2023-11-21T10:07:21;87984.13;;;8.22;58.63
8047;BME280;74083;42.516;23.358;2023-11-21T10:10:08;87976.69;;;8.20;58.71
8047;BME280;74083;42.516;23.358;2023-11-21T10:12:56;87976.25;;;8.15;58.98
8047;BME280;74083;42.516;23.358;2023-11-21T10:15:44;87973.16;;;8.12;59.40
8047;BME280;74083;42.516;23.358;2023-11-21T10:18:35;87962.22;;;8.13;59.20
8047;BME280;74083;42.516;23.358;2023-11-21T10:21:24;87954.69;;;8.13;59.60
8047;BME280;74083;42.516;23.358;2023-11-21T10:24:10;87957.19;;;8.13;59.86
8047;BME280;74083;42.516;23.358;2023-11-21T10:26:56;87951.97;;;8.16;59.80
8047;BME280;74083;42.516;23.358;2023-11-21T10:29:42;87958.91;;;8.23;59.40
8047;BME280;74083;42.516;23.358;2023-11-21T10:32:30;87957.53;;;8.19;59.50
8047;BME280;74083;42.516;23.358;2023-11-21T10:35:17;87956.63;;;8.20;59.80
8047;BME280;74083;42.516;23.358;2023-11-21T10:38:02;87955.59;;;8.23;59.68
8047;BME280;74083;42.516;23.358;2023-11-21T10:40:49;87952.47;;;8.32;59.61
8047;BME280;74083;42.516;23.358;2023-11-21T10:43:35;87953.84;;;8.36;59.64
8047;BME280;74083;42.516;23.358;2023-11-21T10:46:21;87940.94;;;8.29;58.98
8047;BME280;74083;42.516;23.358;2023-11-21T10:49:11;87940.28;;;8.38;58.42
8047;BME280;74083;42.516;23.358;2023-11-21T10:51:57;87945.06;;;8.30;58.54
8047;BME280;74083;42.516;23.358;2023-11-21T10:54:43;87935.91;;;8.29;58.65
8047;BME280;74083;42.516;23.358;2023-11-21T10:57:29;87939.91;;;8.32;59.09
8047;BME280;74083;42.516;23.358;2023-11-21T11:00:16;87935.31;;;8.26;58.37
8047;BME280;74083;42.516;23.358;2023-11-21T11:03:04;87942.78;;;8.27;58.46
8047;BME280;74083;42.516;23.358;2023-11-21T11:05:52;87949.78;;;8.22;58.43
8047;BME280;74083;42.516;23.358;2023-11-21T11:08:39;87943.72;;;8.25;58.42
8047;BME280;74083;42.516;23.358;2023-11-21T11:11:25;87950.72;;;8.21;58.69
8047;BME280;74083;42.516;23.358;2023-11-21T11:14:11;87948.56;;;8.28;58.83
8047;BME280;74083;42.516;23.358;2023-11-21T11:16:57;87943.31;;;8.31;59.80
8047;BME280;74083;42.516;23.358;2023-11-21T11:19:44;87943.53;;;8.28;61.02
8047;BME280;74083;42.516;23.358;2023-11-21T11:22:37;87923.19;;;8.20;62.39
8047;BME280;74083;42.516;23.358;2023-11-21T11:25:47;87918.66;;;8.25;63.12
8047;BME280;74083;42.516;23.358;2023-11-21T11:28:42;87912.66;;;8.27;63.07
8047;BME280;74083;42.516;23.358;2023-11-21T11:31:39;87909.97;;;8.18;64.93
8047;BME280;74083;42.516;23.358;2023-11-21T11:34:30;87911.81;;;8.16;65.44
8047;BME280;74083;42.516;23.358;2023-11-21T11:37:17;87898.69;;;8.23;64.35
8047;BME280;74083;42.516;23.358;2023-11-21T11:40:08;87901.22;;;8.23;64.38
8047;BME280;74083;42.516;23.358;2023-11-21T11:42:56;87900.63;;;8.20;65.14
8047;BME280;74083;42.516;23.358;2023-11-21T11:45:43;87892.88;;;8.23;64.97
8047;BME280;74083;42.516;23.358;2023-11-21T11:48:35;87904.97;;;8.18;66.21
8047;BME280;74083;42.516;23.358;2023-11-21T11:51:23;87903.94;;;8.20;66.25
8047;BME280;74083;42.516;23.358;2023-11-21T11:54:08;87896.41;;;8.20;66.01
8047;BME280;74083;42.516;23.358;2023-11-21T11:56:56;87897.66;;;8.26;65.42
8047;BME280;74083;42.516;23.358;2023-11-21T12:00:09;87891.28;;;8.22;65.64
8047;BME280;74083;42.516;23.358;2023-11-21T12:02:56;87897.44;;;8.18;66.04
8047;BME280;74083;42.516;23.358;2023-11-21T12:05:43;87885.22;;;8.13;66.86
8047;BME280;74083;42.516;23.358;2023-11-21T12:08:34;87878.16;;;8.18;66.21
8047;BME280;74083;42.516;23.358;2023-11-21T12:11:21;87877.94;;;8.21;66.06
8047;BME280;74083;42.516;23.358;2023-11-21T12:14:09;87870.50;;;8.20;66.29
8047;BME280;74083;42.516;23.358;2023-11-21T12:16:55;87881.25;;;8.22;65.65
8047;BME280;74083;42.516;23.358;2023-11-21T12:19:41;87886.94;;;8.24;65.46
8047;BME280;74083;42.516;23.358;2023-11-21T12:22:27;87885.13;;;8.26;63.92
8047;BME280;74083;42.516;23.358;2023-11-21T12:25:12;87879.28;;;8.25;63.19
8047;BME280;74083;42.516;23.358;2023-11-21T12:28:01;87879.28;;;8.25;63.15
8047;BME280;74083;42.516;23.358;2023-11-21T12:30:48;87880.31;;;8.23;62.55
8047;BME280;74083;42.516;23.358;2023-11-21T12:33:34;87886.72;;;8.27;62.25
8047;BME280;74083;42.516;23.358;2023-11-21T12:36:21;87890.63;;;8.31;61.49
8047;BME280;74083;42.516;23.358;2023-11-21T12:39:07;87877.06;;;8.33;60.53
8047;BME280;74083;42.516;23.358;2023-11-21T12:41:54;87885.81;;;8.28;60.59
8047;BME280;74083;42.516;23.358;2023-11-21T12:44:40;87879.09;;;8.28;59.93
8047;BME280;74083;42.516;23.358;2023-11-21T12:47:30;87885.81;;;8.28;59.84
8047;BME280;74083;42.516;23.358;2023-11-21T12:50:15;87891.75;;;8.27;59.90
8047;BME280;74083;42.516;23.358;2023-11-21T12:53:07;87884.94;;;8.29;59.72
8047;BME280;74083;42.516;23.358;2023-11-21T12:55:55;87877.53;;;8.27;59.43
8047;BME280;74083;42.516;23.358;2023-11-21T12:58:44;87871.66;;;8.27;59.50
8047;BME280;74083;42.516;23.358;2023-11-21T13:01:31;87869.25;;;8.25;59.39
8047;BME280;74083;42.516;23.358;2023-11-21T13:04:18;87873.28;;;8.28;59.29
8047;BME280;74083;42.516;23.358;2023-11-21T13:07:05;87859.03;;;8.28;59.45
8047;BME280;74083;42.516;23.358;2023-11-21T13:09:57;87857.50;;;8.26;59.39
8047;BME280;74083;42.516;23.358;2023-11-21T13:12:43;87861.19;;;8.22;59.26
8047;BME280;74083;42.516;23.358;2023-11-21T13:15:32;87859.72;;;8.30;59.15
8047;BME280;74083;42.516;23.358;2023-11-21T13:18:19;87849.69;;;8.30;58.99
8047;BME280;74083;42.516;23.358;2023-11-21T13:21:08;87849.19;;;8.25;59.49
8047;BME280;74083;42.516;23.358;2023-11-21T13:23:57;87849.94;;;8.27;59.47
8047;BME280;74083;42.516;23.358;2023-11-21T13:26:43;87846.56;;;8.27;59.54
8047;BME280;74083;42.516;23.358;2023-11-21T13:29:30;87845.69;;;8.28;59.40
8047;BME280;74083;42.516;23.358;2023-11-21T13:32:15;87840.84;;;8.25;59.32
8047;BME280;74083;42.516;23.358;2023-11-21T13:35:05;87841.38;;;8.30;59.25
8047;BME280;74083;42.516;23.358;2023-11-21T13:37:54;87846.91;;;8.22;59.31
8047;BME280;74083;42.516;23.358;2023-11-21T13:40:41;87851.19;;;8.33;59.40
8047;BME280;74083;42.516;23.358;2023-11-21T13:43:28;87842.72;;;8.34;59.48
8047;BME280;74083;42.516;23.358;2023-11-21T13:46:15;87840.78;;;8.37;59.03
8047;BME280;74083;42.516;23.358;2023-11-21T13:49:05;87848.22;;;8.39;59.36
8047;BME280;74083;42.516;23.358;2023-11-21T13:51:54;87853.69;;;8.44;59.47
8047;BME280;74083;42.516;23.358;2023-11-21T13:54:44;87849.47;;;8.44;59.34
8047;BME280;74083;42.516;23.358;2023-11-21T13:57:30;87853.00;;;8.42;59.10
8047;BME280;74083;42.516;23.358;2023-11-21T14:00:17;87854.81;;;8.40;59.77
8047;BME280;74083;42.516;23.358;2023-11-21T14:03:25;87856.53;;;8.39;59.72
8047;BME280;74083;42.516;23.358;2023-11-21T14:06:22;87846.59;;;8.38;60.30
8047;BME280;74083;42.516;23.358;2023-11-21T14:09:14;87844.91;;;8.38;59.78
8047;BME280;74083;42.516;23.358;2023-11-21T14:12:08;87853.91;;;8.41;59.96
8047;BME280;74083;42.516;23.358;2023-11-21T14:14:56;87854.03;;;8.39;60.15
8047;BME280;74083;42.516;23.358;2023-11-21T14:17:42;87852.44;;;8.38;60.20
8047;BME280;74083;42.516;23.358;2023-11-21T14:20:28;87854.13;;;8.38;60.27
8047;BME280;74083;42.516;23.358;2023-11-21T14:23:14;87866.81;;;8.36;60.37
8047;BME280;74083;42.516;23.358;2023-11-21T14:26:00;87860.06;;;8.37;60.08
8047;BME280;74083;42.516;23.358;2023-11-21T14:28:47;87863.50;;;8.36;60.08
8047;BME280;74083;42.516;23.358;2023-11-21T14:31:33;87856.88;;;8.35;60.37
8047;BME280;74083;42.516;23.358;2023-11-21T14:34:19;87856.19;;;8.33;60.20
8047;BME280;74083;42.516;23.358;2023-11-21T14:37:05;87858.69;;;8.33;60.17
8047;BME280;74083;42.516;23.358;2023-11-21T14:39:51;87857.09;;;8.32;60.60
8047;BME280;74083;42.516;23.358;2023-11-21T14:42:38;87844.56;;;8.32;60.30
8047;BME280;74083;42.516;23.358;2023-11-21T14:45:25;87849.56;;;8.32;60.45
8047;BME280;74083;42.516;23.358;2023-11-21T14:48:11;87853.69;;;8.33;60.41
8047;BME280;74083;42.516;23.358;2023-11-21T14:51:00;87846.16;;;8.33;60.26
8047;BME280;74083;42.516;23.358;2023-11-21T14:54:04;87841.13;;;8.33;60.39
8047;BME280;74083;42.516;23.358;2023-11-21T14:56:51;87841.94;;;8.33;60.16
8047;BME280;74083;42.516;23.358;2023-11-21T14:59:37;87843.66;;;8.33;60.18
8047;BME280;74083;42.516;23.358;2023-11-21T15:02:24;87851.97;;;8.33;60.07
8047;BME280;74083;42.516;23.358;2023-11-21T15:05:32;87851.97;;;8.33;60.29
8047;BME280;74083;42.516;23.358;2023-11-21T15:08:19;87852.75;;;8.34;60.04